Portada
METAR-TAF:

METAR-TAF

Aeroports :

San Juan de Pasto, Colòmbia

latitud: 01-25N, longitud: 077-16W, altitud: 1826 m

Observació

L'informe es va fer fa 20 minuts, a les 14:00 UTC
Vent calma
Temperatura 16°C
Humitat 100%
Pressió 1023 hPa
Visibilitat: 0100 m
Cel cobert a una alçada de 500 ft
boira

METAR: SKPS 301400Z 00000KT 0100 FG OVC005 16/16 A3020 RMK AD BLW MNM MET

Hora: 09:20 (14:20 UTC)


TAF: manca

Observacions i pronòstics meteorològics de més de 4000 aeroports (METAR i TAF).

Les estacions disponibles són els punts grocs i vermells al mapa.

Posi el ratolí al punt desitjat per veure el nom de l'estació.

Feu clic per veure les observacions i els pronòstics meteorològics.

Per canviar el mapa: feu clic els botons verds amb una creu de color negre per apropar; al botó verd amb un guió per allunyar la imatge; o en les fletxes verdes per a mapes adjacents.


METAR-TAF: